createdAt,value
2022-10-18T00:00:00.739Z,13.10
2022-10-18T00:05:03.562Z,13.10
2022-10-18T00:10:05.880Z,13.10
2022-10-18T00:15:08.392Z,13.00
2022-10-18T00:20:10.917Z,12.90
2022-10-18T00:25:13.534Z,12.80
2022-10-18T00:30:15.411Z,12.80
2022-10-18T00:35:17.543Z,12.70
2022-10-18T00:40:19.405Z,12.70
2022-10-18T00:45:23.157Z,12.60
2022-10-18T00:50:27.003Z,12.50
2022-10-18T00:55:31.646Z,12.40
2022-10-18T01:00:34.823Z,12.30
2022-10-18T01:05:45.768Z,12.20
2022-10-18T01:11:19.834Z,12.00
2022-10-18T01:16:29.724Z,12.00
2022-10-18T01:21:47.382Z,12.00
2022-10-18T01:27:01.266Z,11.90
2022-10-18T01:32:05.250Z,11.90
2022-10-18T01:37:09.863Z,11.80
2022-10-18T01:42:13.895Z,11.70
2022-10-18T01:47:15.899Z,11.60
2022-10-18T01:52:17.695Z,11.50
2022-10-18T01:57:42.337Z,11.50
2022-10-18T02:02:53.800Z,11.40
2022-10-18T02:08:23.737Z,11.40
2022-10-18T02:13:30.222Z,11.30
2022-10-18T02:18:42.190Z,11.20
2022-10-18T02:23:45.478Z,11.10
2022-10-18T02:28:47.370Z,11.00
2022-10-18T02:33:58.362Z,10.90
2022-10-18T02:39:14.398Z,10.80
2022-10-18T02:44:16.415Z,10.80
2022-10-18T02:49:18.190Z,10.70
2022-10-18T02:54:19.972Z,10.70
2022-10-18T02:59:21.760Z,10.60
2022-10-18T03:04:23.940Z,10.50
2022-10-18T03:09:25.971Z,10.50
2022-10-18T03:14:27.764Z,10.40
2022-10-18T03:19:29.559Z,10.30
2022-10-18T03:24:31.611Z,10.30
2022-10-18T03:29:33.400Z,10.30
2022-10-18T03:34:38.037Z,10.30
2022-10-18T03:39:39.886Z,10.30
2022-10-18T03:44:41.778Z,10.20
2022-10-18T03:49:43.604Z,10.20
2022-10-18T03:54:45.417Z,10.20
2022-10-18T03:59:48.710Z,10.20
2022-10-18T04:04:50.615Z,10.10
2022-10-18T04:09:52.593Z,10.10
2022-10-18T04:14:55.695Z,10.10
2022-10-18T04:19:57.624Z,10.00
2022-10-18T04:24:59.520Z,9.90
2022-10-18T04:30:01.483Z,9.80
2022-10-18T04:35:04.560Z,9.80
2022-10-18T04:40:09.628Z,9.70
2022-10-18T04:45:11.714Z,9.60
2022-10-18T04:50:13.657Z,9.50
2022-10-18T04:55:15.577Z,9.50
2022-10-18T05:00:17.706Z,9.50
2022-10-18T05:05:19.866Z,9.40
2022-10-18T05:10:21.922Z,9.40
2022-10-18T05:15:23.765Z,9.40
2022-10-18T05:20:25.593Z,9.40
2022-10-18T05:25:27.430Z,9.30
2022-10-18T05:30:29.260Z,9.20
2022-10-18T05:35:31.123Z,9.20
2022-10-18T05:40:33.738Z,9.30
2022-10-18T05:45:35.677Z,9.20
2022-10-18T05:50:40.242Z,9.30
2022-10-18T05:55:42.374Z,9.30
2022-10-18T06:00:44.267Z,9.30
2022-10-18T06:05:46.196Z,9.40
2022-10-18T06:10:48.140Z,9.50
2022-10-18T06:15:50.230Z,9.90
2022-10-18T06:20:59.246Z,10.50
2022-10-18T06:26:02.886Z,11.00
2022-10-18T06:31:05.752Z,11.40
2022-10-18T06:36:11.276Z,11.80
2022-10-18T06:41:13.453Z,12.20
2022-10-18T06:46:15.376Z,12.70
2022-10-18T06:51:18.332Z,13.10
2022-10-18T06:56:20.173Z,13.30
2022-10-18T07:01:22.289Z,13.60
2022-10-18T07:06:24.549Z,13.90
2022-10-18T07:11:27.655Z,14.20
2022-10-18T07:16:30.113Z,14.50
2022-10-18T07:21:32.026Z,14.70
2022-10-18T07:26:36.494Z,15.10
2022-10-18T07:31:39.178Z,15.20
2022-10-18T07:36:41.612Z,15.20
2022-10-18T07:41:43.489Z,15.20
2022-10-18T07:46:45.328Z,15.60
2022-10-18T07:51:47.163Z,15.70
2022-10-18T07:56:48.982Z,15.80
2022-10-18T08:01:51.613Z,16.00
2022-10-18T08:06:53.513Z,16.30
2022-10-18T08:11:55.462Z,16.60
2022-10-18T08:16:57.310Z,16.90
2022-10-18T08:21:59.139Z,17.10
2022-10-18T08:27:00.984Z,17.50
2022-10-18T08:32:02.951Z,17.70
2022-10-18T08:37:04.839Z,17.80
2022-10-18T08:42:12.606Z,17.90
2022-10-18T08:47:23.309Z,18.00
2022-10-18T08:52:57.531Z,18.40
2022-10-18T08:57:59.390Z,18.80
2022-10-18T09:03:13.807Z,18.90
2022-10-18T09:08:33.801Z,19.20
2022-10-18T09:14:16.741Z,19.60
2022-10-18T09:19:44.823Z,19.80
2022-10-18T09:24:59.894Z,20.50
2022-10-18T09:30:19.769Z,20.70
2022-10-18T09:35:24.621Z,20.80
2022-10-18T09:40:28.733Z,21.10
2022-10-18T09:45:34.160Z,21.30
2022-10-18T09:51:03.462Z,21.60
2022-10-18T09:56:11.213Z,21.50
2022-10-18T10:01:16.078Z,21.70
2022-10-18T10:06:29.047Z,21.50
2022-10-18T10:11:37.782Z,21.50
2022-10-18T10:16:55.188Z,21.80
2022-10-18T10:22:26.797Z,22.00
2022-10-18T10:27:33.077Z,22.40
2022-10-18T10:32:49.283Z,22.70
2022-10-18T10:37:52.488Z,22.70
2022-10-18T10:43:12.700Z,23.00
2022-10-18T10:48:16.533Z,22.80
2022-10-18T10:53:30.028Z,23.10
2022-10-18T10:58:38.087Z,23.00
2022-10-18T11:03:46.813Z,22.90
2022-10-18T11:08:51.620Z,23.10
2022-10-18T11:14:21.150Z,23.20
2022-10-18T11:19:39.107Z,23.40
2022-10-18T11:24:40.956Z,23.40
2022-10-18T11:29:55.346Z,23.10
2022-10-18T11:35:22.486Z,22.70
2022-10-18T11:40:51.064Z,22.50
2022-10-18T11:46:11.890Z,22.70
2022-10-18T11:51:29.791Z,23.00
2022-10-18T11:57:19.062Z,23.20
2022-10-18T12:02:39.233Z,23.20
2022-10-18T12:07:44.261Z,23.20
2022-10-18T12:12:52.402Z,23.30
2022-10-18T12:17:56.470Z,22.80
2022-10-18T12:23:18.176Z,22.40
2022-10-18T12:28:49.913Z,22.30
2022-10-18T12:33:55.724Z,22.20
2022-10-18T12:39:01.251Z,22.20
2022-10-18T12:44:04.977Z,22.10
2022-10-18T12:49:11.540Z,22.00
2022-10-18T12:54:16.661Z,21.80
2022-10-18T12:59:18.698Z,21.70
2022-10-18T13:04:27.189Z,21.50
2022-10-18T13:09:37.176Z,21.50
2022-10-18T13:15:12.618Z,21.40
2022-10-18T13:20:36.862Z,21.30
2022-10-18T13:26:00.742Z,21.00
2022-10-18T13:31:40.124Z,20.80
2022-10-18T13:36:42.313Z,20.80
2022-10-18T13:41:46.831Z,20.60
2022-10-18T13:46:48.538Z,20.60
2022-10-18T13:52:08.984Z,20.40
2022-10-18T13:57:10.721Z,20.30
2022-10-18T14:02:51.435Z,20.30
2022-10-18T14:08:10.736Z,20.30
2022-10-18T14:13:20.687Z,20.20
2022-10-18T14:18:33.565Z,20.20
2022-10-18T14:23:37.965Z,20.10
2022-10-18T14:29:00.621Z,20.00
2022-10-18T14:34:02.895Z,19.90
2022-10-18T14:39:06.313Z,19.90
2022-10-18T14:44:14.170Z,19.80
2022-10-18T14:49:17.338Z,19.70
2022-10-18T14:54:39.365Z,19.60
2022-10-18T14:59:51.669Z,19.50
2022-10-18T15:04:59.321Z,19.50
2022-10-18T15:10:03.943Z,19.40
2022-10-18T15:15:06.759Z,19.20
2022-10-18T15:20:39.383Z,19.10
2022-10-18T15:25:41.210Z,18.90
2022-10-18T15:30:43.121Z,18.80
2022-10-18T15:35:45.082Z,18.60
2022-10-18T15:40:47.525Z,18.40
2022-10-18T15:45:51.862Z,18.30
2022-10-18T15:50:56.183Z,18.10
2022-10-18T15:56:01.222Z,17.90
2022-10-18T16:01:04.431Z,17.70
2022-10-18T16:06:08.322Z,17.60
2022-10-18T16:11:16.074Z,17.40
2022-10-18T16:16:25.326Z,17.30
2022-10-18T16:21:33.032Z,17.10
2022-10-18T16:26:35.443Z,17.00
2022-10-18T16:31:37.274Z,16.80
2022-10-18T16:36:39.081Z,16.70
2022-10-18T16:41:41.025Z,16.70
2022-10-18T16:46:43.253Z,16.60
2022-10-18T16:51:45.131Z,16.60
2022-10-18T16:56:47.832Z,16.50
2022-10-18T17:01:49.690Z,16.50
2022-10-18T17:06:55.837Z,16.40
2022-10-18T17:11:57.655Z,16.40
2022-10-18T17:16:59.488Z,16.30
2022-10-18T17:22:02.779Z,16.30
2022-10-18T17:27:05.049Z,16.10
2022-10-18T17:32:07.781Z,16.10
2022-10-18T17:37:09.605Z,15.90
2022-10-18T17:47:44.219Z,15.70
2022-10-18T17:52:47.111Z,15.70
2022-10-18T17:57:48.901Z,15.70
2022-10-18T18:02:50.731Z,15.60
2022-10-18T18:07:52.768Z,15.60
2022-10-18T18:12:54.571Z,15.40
2022-10-18T18:17:57.679Z,15.40
2022-10-18T18:23:00.018Z,15.30
2022-10-18T18:28:05.230Z,15.20
2022-10-18T18:33:09.425Z,15.10
2022-10-18T18:38:11.271Z,15.10
2022-10-18T18:43:23.613Z,14.90
2022-10-18T18:48:29.330Z,14.90
2022-10-18T18:53:32.414Z,14.90
2022-10-18T18:58:35.325Z,14.80
2022-10-18T19:03:41.571Z,14.70
2022-10-18T19:08:44.866Z,14.70
2022-10-18T19:13:47.271Z,14.60
2022-10-18T19:18:59.266Z,14.50
2022-10-18T19:24:01.110Z,14.40
2022-10-18T19:29:15.230Z,14.30
2022-10-18T19:34:23.722Z,14.20
2022-10-18T19:39:30.646Z,14.00
2022-10-18T19:44:43.576Z,13.80
2022-10-18T19:49:45.582Z,13.70
2022-10-18T19:54:48.960Z,13.80
2022-10-18T19:59:50.779Z,13.90
2022-10-18T20:04:54.544Z,14.30
2022-10-18T20:10:05.985Z,14.90
2022-10-18T20:15:10.323Z,15.40
2022-10-18T20:20:12.297Z,15.80
2022-10-18T20:25:14.158Z,16.10
2022-10-18T20:30:16.121Z,16.20
2022-10-18T20:35:18.446Z,16.30
2022-10-18T20:40:20.243Z,16.30
2022-10-18T20:45:22.051Z,16.30
2022-10-18T20:50:23.836Z,16.30
2022-10-18T20:55:25.746Z,16.20
2022-10-18T21:00:27.538Z,16.00
2022-10-18T21:05:30.294Z,15.90
2022-10-18T21:10:32.385Z,15.80
2022-10-18T21:15:34.178Z,15.80
2022-10-18T21:20:35.972Z,15.60
2022-10-18T21:25:37.829Z,15.60
2022-10-18T21:30:39.677Z,15.50
2022-10-18T21:35:41.927Z,15.40
2022-10-18T21:40:44.660Z,15.30
2022-10-18T21:45:46.578Z,15.30
2022-10-18T21:50:48.358Z,15.20
2022-10-18T21:55:50.191Z,15.20
2022-10-18T22:00:52.055Z,15.20
2022-10-18T22:06:01.893Z,15.20
2022-10-18T22:11:04.827Z,15.20
2022-10-18T22:16:14.478Z,15.10
2022-10-18T22:21:17.770Z,15.20
2022-10-18T22:26:23.774Z,15.10
2022-10-18T22:31:28.944Z,15.10
2022-10-18T22:36:31.817Z,15.10
2022-10-18T22:41:34.463Z,15.10
2022-10-18T22:46:36.326Z,15.20
2022-10-18T22:51:38.149Z,15.20
2022-10-18T22:56:40.058Z,15.20
2022-10-18T23:01:41.871Z,15.20
2022-10-18T23:06:43.690Z,15.30
2022-10-18T23:11:47.537Z,15.30
2022-10-18T23:16:49.414Z,15.30
2022-10-18T23:21:51.214Z,15.30
2022-10-18T23:26:53.026Z,15.30
2022-10-18T23:31:54.919Z,15.30
2022-10-18T23:36:56.731Z,15.30
2022-10-18T23:41:58.541Z,15.30
2022-10-18T23:47:00.398Z,15.30
2022-10-18T23:52:02.209Z,15.30
2022-10-18T23:57:04.119Z,15.30
